VTD754 LKPR-LKKV
Flight info
| Callsign | VTD754 |
|---|---|
| Flight time | 0h 23m |
| Altitude | 10000 |
| Route | BALTU4B/30 BALT6H BALTU BALT1K |
| Aircraft | DA42/L-L/C |
Departure
| Time | 2026-05-04 17:48 |
|---|---|
| Airport | Václav Havel Airport Prague (LKPR) |
Arrival
| Time | 2026-05-04 18:12 |
|---|---|
| Airport | Karlovy Vary Airport (LKKV) |
| Time | Latitude | Longitude | Altitude | Speed | Heading |
|---|---|---|---|---|---|
| 2026-05-04 17:29 | 50.09786 | 14.27885 | 1197 ft | 0 kts | 265° |
| 2026-05-04 17:45 | 50.09792 | 14.27864 | 1198 ft | 8 kts | 336° |
| 2026-05-04 17:45 | 50.09789 | 14.27837 | 1198 ft | 6 kts | 176° |
| 2026-05-04 17:45 | 50.09730 | 14.27795 | 1199 ft | 11 kts | 215° |
| 2026-05-04 17:46 | 50.09668 | 14.27723 | 1201 ft | 9 kts | 218° |
| 2026-05-04 17:46 | 50.09599 | 14.27647 | 1203 ft | 15 kts | 215° |
| 2026-05-04 17:46 | 50.09518 | 14.27556 | 1207 ft | 15 kts | 215° |
| 2026-05-04 17:46 | 50.09485 | 14.27520 | 1209 ft | 0 kts | 217° |
| 2026-05-04 17:47 | 50.09454 | 14.27486 | 1211 ft | 15 kts | 213° |
| 2026-05-04 17:47 | 50.09423 | 14.27392 | 1213 ft | 0 kts | 308° |
| 2026-05-04 17:47 | 50.09547 | 14.27135 | 1209 ft | 64 kts | 307° |
| 2026-05-04 17:48 | 50.09904 | 14.26406 | 1294 ft | 96 kts | 309° |
| 2026-05-04 17:48 | 50.10338 | 14.25547 | 1637 ft | 99 kts | 309° |
| 2026-05-04 17:48 | 50.10740 | 14.24686 | 2048 ft | 99 kts | 307° |
| 2026-05-04 17:48 | 50.11138 | 14.23798 | 2431 ft | 101 kts | 305° |
| 2026-05-04 17:49 | 50.11535 | 14.22896 | 2820 ft | 101 kts | 304° |
| 2026-05-04 17:49 | 50.11929 | 14.21990 | 3206 ft | 102 kts | 304° |
| 2026-05-04 17:49 | 50.12324 | 14.21077 | 3592 ft | 102 kts | 303° |
| 2026-05-04 17:49 | 50.12716 | 14.20168 | 3967 ft | 101 kts | 303° |
| 2026-05-04 17:50 | 50.13105 | 14.19260 | 4309 ft | 101 kts | 302° |
| 2026-05-04 17:50 | 50.13437 | 14.18294 | 4635 ft | 101 kts | 278° |
| 2026-05-04 17:50 | 50.13391 | 14.17233 | 4982 ft | 98 kts | 259° |
| 2026-05-04 17:50 | 50.13285 | 14.16180 | 5316 ft | 98 kts | 259° |
| 2026-05-04 17:51 | 50.13179 | 14.15126 | 5661 ft | 99 kts | 261° |
| 2026-05-04 17:51 | 50.13092 | 14.14066 | 6014 ft | 99 kts | 262° |
| 2026-05-04 17:51 | 50.13023 | 14.13014 | 6364 ft | 99 kts | 263° |
| 2026-05-04 17:51 | 50.12962 | 14.11949 | 6701 ft | 98 kts | 264° |
| 2026-05-04 17:52 | 50.12907 | 14.10892 | 7043 ft | 97 kts | 264° |
| 2026-05-04 17:52 | 50.12855 | 14.09850 | 7390 ft | 96 kts | 264° |
| 2026-05-04 17:52 | 50.12805 | 14.08816 | 7733 ft | 95 kts | 263° |
| 2026-05-04 17:52 | 50.12755 | 14.07788 | 8082 ft | 95 kts | 263° |
| 2026-05-04 17:53 | 50.12706 | 14.06770 | 8443 ft | 94 kts | 263° |
| 2026-05-04 17:53 | 50.12658 | 14.05758 | 8821 ft | 93 kts | 263° |
| 2026-05-04 17:53 | 50.12610 | 14.04754 | 9173 ft | 93 kts | 263° |
| 2026-05-04 17:53 | 50.12563 | 14.03758 | 9532 ft | 92 kts | 262° |
| 2026-05-04 17:54 | 50.12515 | 14.02771 | 9899 ft | 91 kts | 262° |
| 2026-05-04 17:54 | 50.12462 | 14.01675 | 9977 ft | 115 kts | 263° |
| 2026-05-04 17:54 | 50.12400 | 14.00331 | 9971 ft | 131 kts | 263° |
| 2026-05-04 17:54 | 50.12332 | 13.98869 | 9973 ft | 139 kts | 263° |
| 2026-05-04 17:55 | 50.12266 | 13.97334 | 9965 ft | 145 kts | 265° |
| 2026-05-04 17:55 | 50.12245 | 13.95747 | 9964 ft | 148 kts | 265° |
| 2026-05-04 17:55 | 50.12195 | 13.94136 | 9965 ft | 149 kts | 264° |
| 2026-05-04 17:55 | 50.12122 | 13.92514 | 9965 ft | 151 kts | 263° |
| 2026-05-04 17:56 | 50.12040 | 13.90882 | 9966 ft | 152 kts | 263° |
| 2026-05-04 17:56 | 50.11956 | 13.89235 | 9967 ft | 152 kts | 263° |
| 2026-05-04 17:56 | 50.11873 | 13.87586 | 9966 ft | 153 kts | 263° |
| 2026-05-04 17:56 | 50.11789 | 13.85934 | 9965 ft | 153 kts | 263° |
| 2026-05-04 17:57 | 50.11705 | 13.84281 | 9968 ft | 153 kts | 263° |
| 2026-05-04 17:57 | 50.11621 | 13.82643 | 9967 ft | 154 kts | 262° |
| 2026-05-04 17:57 | 50.11533 | 13.80952 | 9967 ft | 155 kts | 262° |
| 2026-05-04 17:57 | 50.11446 | 13.79277 | 9966 ft | 155 kts | 262° |
| 2026-05-04 17:58 | 50.11361 | 13.77626 | 9965 ft | 155 kts | 262° |
| 2026-05-04 17:58 | 50.11275 | 13.75949 | 9966 ft | 155 kts | 262° |
| 2026-05-04 17:58 | 50.11188 | 13.74273 | 9968 ft | 155 kts | 262° |
| 2026-05-04 17:58 | 50.11101 | 13.72595 | 9968 ft | 155 kts | 262° |
| 2026-05-04 17:59 | 50.11013 | 13.70913 | 9916 ft | 158 kts | 262° |
| 2026-05-04 17:59 | 50.10922 | 13.69173 | 9609 ft | 163 kts | 262° |
| 2026-05-04 17:59 | 50.10734 | 13.65619 | 9048 ft | 165 kts | 262° |
| 2026-05-04 18:00 | 50.10640 | 13.63836 | 8766 ft | 165 kts | 262° |
| 2026-05-04 18:00 | 50.10547 | 13.62051 | 8489 ft | 166 kts | 262° |
| 2026-05-04 18:00 | 50.10450 | 13.60252 | 8210 ft | 167 kts | 262° |
| 2026-05-04 18:00 | 50.10353 | 13.58448 | 7933 ft | 167 kts | 262° |
| 2026-05-04 18:01 | 50.10257 | 13.56644 | 7663 ft | 168 kts | 262° |
| 2026-05-04 18:01 | 50.10160 | 13.54831 | 7388 ft | 168 kts | 263° |
| 2026-05-04 18:01 | 50.10062 | 13.53021 | 7118 ft | 168 kts | 263° |
| 2026-05-04 18:02 | 50.09866 | 13.49394 | 6590 ft | 168 kts | 263° |
| 2026-05-04 18:02 | 50.09768 | 13.47575 | 6327 ft | 169 kts | 263° |
| 2026-05-04 18:02 | 50.09668 | 13.45752 | 6046 ft | 168 kts | 263° |
| 2026-05-04 18:02 | 50.09569 | 13.43938 | 5770 ft | 168 kts | 264° |
| 2026-05-04 18:03 | 50.09469 | 13.42118 | 5497 ft | 169 kts | 264° |
| 2026-05-04 18:03 | 50.09368 | 13.40292 | 5225 ft | 170 kts | 264° |
| 2026-05-04 18:03 | 50.09270 | 13.38485 | 4957 ft | 170 kts | 265° |
| 2026-05-04 18:03 | 50.09169 | 13.36658 | 4690 ft | 170 kts | 265° |
| 2026-05-04 18:04 | 50.09068 | 13.34829 | 4459 ft | 167 kts | 265° |
| 2026-05-04 18:04 | 50.08994 | 13.33108 | 4458 ft | 153 kts | 273° |
| 2026-05-04 18:04 | 50.09677 | 13.30006 | 4462 ft | 153 kts | 294° |
| 2026-05-04 18:05 | 50.10103 | 13.28487 | 4498 ft | 151 kts | 294° |
| 2026-05-04 18:05 | 50.10525 | 13.26979 | 4507 ft | 153 kts | 294° |
| 2026-05-04 18:05 | 50.10971 | 13.25468 | 4507 ft | 154 kts | 295° |
| 2026-05-04 18:05 | 50.11414 | 13.23946 | 4507 ft | 155 kts | 295° |
| 2026-05-04 18:06 | 50.12265 | 13.20862 | 4510 ft | 155 kts | 294° |
| 2026-05-04 18:06 | 50.12687 | 13.19318 | 4513 ft | 155 kts | 293° |
| 2026-05-04 18:06 | 50.13110 | 13.17773 | 4513 ft | 155 kts | 293° |
| 2026-05-04 18:07 | 50.13532 | 13.16232 | 4513 ft | 155 kts | 293° |
| 2026-05-04 18:07 | 50.13955 | 13.14689 | 4513 ft | 155 kts | 293° |
| 2026-05-04 18:07 | 50.14377 | 13.13148 | 4513 ft | 155 kts | 293° |
| 2026-05-04 18:07 | 50.14800 | 13.11607 | 4508 ft | 155 kts | 293° |
| 2026-05-04 18:08 | 50.15231 | 13.10034 | 4325 ft | 165 kts | 293° |
| 2026-05-04 18:08 | 50.15690 | 13.08357 | 4103 ft | 171 kts | 294° |
| 2026-05-04 18:08 | 50.16154 | 13.06666 | 3880 ft | 168 kts | 294° |
| 2026-05-04 18:08 | 50.16592 | 13.05068 | 3666 ft | 148 kts | 294° |
| 2026-05-04 18:09 | 50.17285 | 13.02537 | 3334 ft | 111 kts | 295° |
| 2026-05-04 18:09 | 50.17863 | 13.00426 | 3061 ft | 104 kts | 295° |
| 2026-05-04 18:10 | 50.18150 | 12.99380 | 2917 ft | 106 kts | 296° |
| 2026-05-04 18:10 | 50.18442 | 12.98318 | 2769 ft | 106 kts | 296° |
| 2026-05-04 18:10 | 50.18728 | 12.97268 | 2627 ft | 105 kts | 296° |
| 2026-05-04 18:10 | 50.19012 | 12.96230 | 2490 ft | 103 kts | 298° |
| 2026-05-04 18:11 | 50.19281 | 12.95177 | 2327 ft | 103 kts | 295° |
| 2026-05-04 18:11 | 50.19578 | 12.94152 | 2175 ft | 103 kts | 295° |
| 2026-05-04 18:11 | 50.19860 | 12.93142 | 2077 ft | 101 kts | 294° |
| 2026-05-04 18:11 | 50.20100 | 12.92272 | 1991 ft | 69 kts | 294° |
| 2026-05-04 18:12 | 50.20250 | 12.91723 | 1991 ft | 44 kts | 292° |
| 2026-05-04 18:12 | 50.20347 | 12.91366 | 1994 ft | 29 kts | 294° |
| 2026-05-04 18:12 | 50.20338 | 12.91238 | 1996 ft | 11 kts | 201° |
| 2026-05-04 18:12 | 50.20297 | 12.91210 | 1993 ft | 11 kts | 197° |
| 2026-05-04 18:13 | 50.20235 | 12.91197 | 1989 ft | 7 kts | 159° |
| 2026-05-04 18:13 | 50.20200 | 12.91196 | 1989 ft | 0 kts | 197° |
| 2026-05-04 18:13 | 50.20198 | 12.91195 | 1989 ft | 0 kts | 196° |